Dayton, WA

5:22 PM PDT on October 25, 2014 (GMT -0700)
Tri-Cities | Change Station
CLOSE
Current Station
Airport
Location: Pasco,
Elevation: 407 ft
Nearby Weather Stations
Active Advisory: Wind Advisory

Elev 407 ft 46.26 °N, 119.12 °W | Updated 29 minutes ago

Overcast
Overcast
56 °F
Feels Like 56 °F
N
5
Wind Variable Wind from North

Today
High -- | Low -- °F
--% Chance of Precip.
Yesterday
High -- | Low -- °F
Precip. -- in
7:23 AM 5:47 PM
Waxing Crescent, 5% visible
Pressure 29.52 in
Visibility 10.0 miles
Clouds Few 8000 ft
Mostly Cloudy 10000 ft
Dew Point 52 °F
Humidity 87%
Rainfall 0.00 in
Snow Depth Not available.
UV 0 out of 12
Pollen 2.40 out of 12
Air Quality Not available.
Flu Activity Sporadic
METAR KPSC 252353Z 36004KT 10SM FEW080 BKN100 13/11 A2951 RMK AO2 RAB21E53 SLP994 P0000 60000 T01330111 10139 20106 55013

More Conditions Fewer Conditions

Pressure 29.52 in
Visibility 10.0 miles
Clouds Few 8000 ft
Mostly Cloudy 10000 ft
Dew Point 52 °F
Humidity 87%
Rainfall 0.00 in
Snow Depth Not available.
UV 0 out of 12
Pollen 2.40 out of 12
Air Quality Not available.
Flu Activity Sporadic
METAR KPSC 252353Z 36004KT 10SM FEW080 BKN100 13/11 A2951 RMK AO2 RAB21E53 SLP994 P0000 60000 T01330111 10139 20106 55013

More Conditions Fewer Conditions

10-Day Weather Forecast

Almanac

Astronomy

Oct. 25, 2014 Rise Set
Actual Time 7:23 AM PDT 5:47 PM PDT
Civil Twilight 6:52 AM PDT 6:18 PM PDT
Nautical Twilight 6:17 AM PDT 6:53 PM PDT
Astronomical Twilight 5:42 AM PDT 7:28 PM PDT
Moon 9:11 AM PDT (10/25) 7:09 PM PDT (10/25)
Length of Visible Light 11h 26m
Length of Day
10h 24m
Tomorrow will be 3m 2s shorter.
Waxing Crescent, 5% of the Moon is Illuminated
Today
Waxing Crescent
Oct 30
First Quarter
Nov 6
Full
Nov 14
Last Quarter
Nov 22
New

Today's Extremes

State Highs State Lows

Community

WunderPhotos

Upload Photos

1,765,039 photos uploaded!

Nearby

Snow Depth

Station Depth Elevation
Spruce Springs 0 in 5700 ft
Sourdough Gulch 0 in 4000 ft
Quartz Peak 1 in 4700 ft
Trough 0 in 5300 ft
Grouse Camp 0 in 5380 ft

Earthquake Activity

City Distance Mag. Time & Date
No recent earthquake activity has been reported nearby.
Minimum magnitude displayed is 2.5.

Coastal Water Temperatures

Place Temperature
No Stations Reporting

Nearby Weather Stations